Time;durP1;ratioP1;P1;durP2;ratioP2;P2;SDS_P1;SDS_P2;PMS_P1;PMS_P2;Temp;Humidity;BMP_temperature;BMP_pressure;BME280_temperature;BME280_humidity;BME280_pressure;Samples;Min_cycle;Max_cycle;Signal;HPM_P1;HPM_P2
2023/07/03 00:01:09;;;;;;;20.75;5.88;;;16.80;99.90;;;;;;5081795;28;20063;-56
2023/07/03 00:03:38;;;;;;;22.35;5.70;;;17.10;99.90;;;;;;5083917;28;20049;-56
2023/07/03 00:06:04;;;;;;;18.83;6.13;;;16.80;99.90;;;;;;5082511;28;20039;-57
2023/07/03 00:08:30;;;;;;;21.85;5.70;;;16.80;99.90;;;;;;5083883;28;20041;-56
2023/07/03 00:11:03;;;;;;;24.10;5.95;;;16.80;99.90;;;;;;5102303;28;20044;-55
2023/07/03 00:13:28;;;;;;;20.13;6.05;;;16.70;99.90;;;;;;5099516;28;20077;-56
2023/07/03 00:15:59;;;;;;;24.13;6.00;;;16.70;99.90;;;;;;5103881;28;20044;-56
2023/07/03 00:18:25;;;;;;;21.35;6.13;;;16.70;99.90;;;;;;5102018;28;20044;-56
2023/07/03 00:20:54;;;;;;;19.35;6.32;;;16.70;99.90;;;;;;5104559;28;20051;-57
2023/07/03 00:23:21;;;;;;;23.60;5.75;;;16.70;99.90;;;;;;5102955;28;20059;-56
2023/07/03 00:25:46;;;;;;;23.20;6.47;;;16.70;99.90;;;;;;5102149;28;20065;-56
2023/07/03 00:28:12;;;;;;;22.90;5.75;;;16.60;99.90;;;;;;5098623;28;20086;-55
2023/07/03 00:30:38;;;;;;;21.38;5.55;;;16.60;99.90;;;;;;5101641;28;20075;-56
2023/07/03 00:33:03;;;;;;;22.20;6.63;;;16.60;99.90;;;;;;5110351;28;20048;-57
2023/07/03 00:35:29;;;;;;;25.63;5.82;;;16.70;99.90;;;;;;5098101;28;20618;-58
2023/07/03 00:37:55;;;;;;;25.55;6.40;;;16.70;99.90;;;;;;5104287;28;20052;-56
2023/07/03 00:40:20;;;;;;;23.88;6.53;;;16.60;99.90;;;;;;5101875;28;20048;-55
2023/07/03 00:42:46;;;;;;;23.42;5.30;;;16.60;99.90;;;;;;5105001;28;20060;-56
2023/07/03 00:45:12;;;;;;;24.90;6.28;;;16.70;99.90;;;;;;5102792;28;20044;-58
2023/07/03 00:47:38;;;;;;;22.30;5.90;;;16.70;99.90;;;;;;5114937;28;20035;-55
2023/07/03 00:50:04;;;;;;;25.20;6.15;;;16.70;99.90;;;;;;5114417;28;20545;-57
2023/07/03 00:52:30;;;;;;;22.45;6.10;;;16.60;99.90;;;;;;5101724;28;20115;-56
2023/07/03 00:54:57;;;;;;;25.75;6.03;;;16.60;99.90;;;;;;5103963;28;20036;-56
2023/07/03 00:57:23;;;;;;;24.50;5.85;;;16.60;99.90;;;;;;5100324;28;20044;-56
2023/07/03 00:59:49;;;;;;;21.52;6.03;;;16.60;99.90;;;;;;5103117;28;20477;-57
2023/07/03 01:02:22;;;;;;;27.25;6.05;;;16.60;99.90;;;;;;5102755;28;20048;-56
2023/07/03 01:05:05;;;;;;;24.73;5.72;;;16.60;99.90;;;;;;5099841;28;20052;-59
2023/07/03 01:07:32;;;;;;;20.98;5.78;;;16.60;99.90;;;;;;5101603;28;20392;-56
2023/07/03 01:10:04;;;;;;;23.10;6.60;;;16.70;99.90;;;;;;5100535;28;20487;-57
2023/07/03 01:12:32;;;;;;;26.75;6.75;;;16.60;99.90;;;;;;5103689;28;20078;-57
2023/07/03 01:15:02;;;;;;;24.23;6.25;;;16.60;99.90;;;;;;5102500;28;20051;-55
2023/07/03 01:17:29;;;;;;;28.33;6.20;;;16.60;99.90;;;;;;5099351;28;20423;-57
2023/07/03 01:19:57;;;;;;;25.23;6.50;;;16.60;99.90;;;;;;5083346;28;20052;-56
2023/07/03 01:22:30;;;;;;;23.98;6.80;;;16.60;99.90;;;;;;5094032;28;20055;-56
2023/07/03 01:25:03;;;;;;;35.67;6.63;;;16.70;99.90;;;;;;5095503;28;20036;-57
2023/07/03 01:27:32;;;;;;;29.67;6.55;;;16.60;99.90;;;;;;5097573;28;20040;-57
2023/07/03 01:30:00;;;;;;;30.95;6.82;;;16.60;99.90;;;;;;5102557;28;20043;-56
2023/07/03 01:32:31;;;;;;;27.23;6.60;;;16.60;99.90;;;;;;5101307;28;20036;-56
2023/07/03 01:34:57;;;;;;;23.42;6.18;;;16.60;99.90;;;;;;5098477;28;20048;-56
2023/07/03 01:37:26;;;;;;;23.73;6.28;;;16.60;99.90;;;;;;5100253;28;20075;-56
2023/07/03 01:39:52;;;;;;;31.35;6.13;;;16.60;99.90;;;;;;5099812;28;20040;-57
2023/07/03 01:42:23;;;;;;;19.67;5.88;;;16.60;99.90;;;;;;5102511;28;20051;-56
2023/07/03 01:44:49;;;;;;;22.98;5.30;;;16.50;99.90;;;;;;5104947;28;20051;-56
2023/07/03 01:47:16;;;;;;;29.15;6.32;;;16.60;99.90;;;;;;5100232;28;20037;-56
2023/07/03 01:49:42;;;;;;;23.38;6.70;;;16.60;99.90;;;;;;5096052;28;20052;-55
2023/07/03 01:52:27;;;;;;;32.50;6.45;;;16.60;99.90;;;;;;5107787;28;20050;-56
2023/07/03 01:55:22;;;;;;;26.50;6.10;;;16.60;99.90;;;;;;5111866;28;20040;-56
2023/07/03 01:58:09;;;;;;;22.88;6.28;;;16.60;99.90;;;;;;5090362;28;20052;-56
2023/07/03 02:00:37;;;;;;;;;;;16.50;99.90;;;;;;5102265;28;20036;-56
2023/07/03 02:03:07;;;;;;;32.28;7.03;;;16.50;99.90;;;;;;5101441;28;19920;-56
2023/07/03 02:05:38;;;;;;;23.17;5.97;;;16.50;99.90;;;;;;5101706;28;20495;-56
2023/07/03 02:08:06;;;;;;;31.58;6.65;;;16.50;99.90;;;;;;5089398;28;20044;-55
2023/07/03 02:10:32;;;;;;;23.08;6.43;;;16.50;99.90;;;;;;5095986;28;20057;-55
2023/07/03 02:12:58;;;;;;;30.50;6.47;;;16.50;99.90;;;;;;5080962;28;20049;-54
2023/07/03 02:15:23;;;;;;;27.67;6.50;;;16.50;99.90;;;;;;5089059;28;20039;-56
2023/07/03 02:17:54;;;;;;;27.80;6.20;;;16.50;99.90;;;;;;5096169;28;20081;-57
2023/07/03 02:20:20;;;;;;;28.85;6.85;;;16.50;99.90;;;;;;5093240;28;20070;-55
2023/07/03 02:22:46;;;;;;;26.70;7.03;;;16.50;99.90;;;;;;5092936;28;20047;-55
2023/07/03 02:25:13;;;;;;;34.00;6.30;;;16.50;99.90;;;;;;5089636;28;20051;-56
2023/07/03 02:27:44;;;;;;;30.80;6.35;;;16.50;99.90;;;;;;5106384;28;20040;-56
2023/07/03 02:30:10;;;;;;;29.50;6.40;;;16.50;99.90;;;;;;5084364;28;20044;-55
2023/07/03 02:32:38;;;;;;;28.63;6.47;;;16.50;99.90;;;;;;5093938;28;20037;-56
2023/07/03 02:35:04;;;;;;;28.95;7.20;;;16.50;99.90;;;;;;5092835;28;20036;-57
2023/07/03 02:37:30;;;;;;;27.42;6.57;;;16.50;99.90;;;;;;5119612;28;20036;-56
2023/07/03 02:39:56;;;;;;;30.85;7.15;;;16.50;99.90;;;;;;5118922;28;20040;-56
2023/07/03 02:42:22;;;;;;;31.77;6.35;;;16.50;99.90;;;;;;5122267;28;20075;-55
2023/07/03 02:44:48;;;;;;;25.73;6.38;;;16.50;99.90;;;;;;5119953;28;20036;-55
2023/07/03 02:47:14;;;;;;;27.88;6.63;;;16.40;99.90;;;;;;5101450;28;20047;-57
2023/07/03 02:49:40;;;;;;;24.92;5.57;;;16.50;99.90;;;;;;5098113;28;20096;-56
2023/07/03 02:52:06;;;;;;;29.60;6.25;;;16.50;99.90;;;;;;5098173;28;20043;-57
2023/07/03 02:54:31;;;;;;;31.77;6.82;;;16.50;99.90;;;;;;5117933;28;20036;-56
2023/07/03 02:56:57;;;;;;;30.17;6.15;;;16.50;99.90;;;;;;5102782;28;20992;-57
2023/07/03 02:59:23;;;;;;;26.08;5.68;;;16.50;99.90;;;;;;5101080;28;20074;-57
2023/07/03 03:01:49;;;;;;;30.85;6.05;;;16.50;99.90;;;;;;5110696;28;20039;-56
2023/07/03 03:04:16;;;;;;;19.27;4.90;;;16.40;99.90;;;;;;5108827;28;20052;-56
2023/07/03 03:06:43;;;;;;;15.45;4.38;;;16.50;99.90;;;;;;5093632;28;20135;-57
2023/07/03 03:09:09;;;;;;;15.93;3.72;;;16.40;99.90;;;;;;5103169;28;20565;-56
2023/07/03 03:11:35;;;;;;;12.60;3.42;;;16.40;99.90;;;;;;5101715;28;20036;-57
2023/07/03 03:14:01;;;;;;;8.90;2.80;;;16.40;99.90;;;;;;5098840;28;20048;-57
2023/07/03 03:16:27;;;;;;;13.77;2.90;;;16.40;99.90;;;;;;5101533;28;20038;-57
2023/07/03 03:18:53;;;;;;;15.27;3.20;;;16.40;99.90;;;;;;5099246;28;20067;-56
2023/07/03 03:21:18;;;;;;;9.23;2.63;;;16.40;99.90;;;;;;5099530;28;20143;-56
2023/07/03 03:23:45;;;;;;;11.07;2.55;;;16.40;99.90;;;;;;5104520;28;20040;-57
2023/07/03 03:26:10;;;;;;;12.82;2.75;;;16.40;99.90;;;;;;5103082;28;20036;-57
2023/07/03 03:28:36;;;;;;;11.23;2.60;;;16.40;99.90;;;;;;5105759;28;20040;-57
2023/07/03 03:31:02;;;;;;;7.22;2.53;;;16.40;99.90;;;;;;5087112;28;20092;-56
2023/07/03 03:33:27;;;;;;;13.73;2.72;;;16.30;99.90;;;;;;5085238;28;20074;-55
2023/07/03 03:35:53;;;;;;;7.78;2.15;;;16.30;99.90;;;;;;5082981;28;20138;-56
2023/07/03 03:38:19;;;;;;;10.57;2.35;;;16.30;99.90;;;;;;5084871;28;20052;-56
2023/07/03 03:40:54;;;;;;;8.13;2.80;;;16.30;99.90;;;;;;5124478;27;20084;-56
2023/07/03 03:43:19;;;;;;;9.90;2.80;;;16.30;99.90;;;;;;5102889;28;20059;-57
2023/07/03 03:45:54;;;;;;;9.05;2.08;;;16.20;99.90;;;;;;5097983;28;20028;-56
2023/07/03 03:48:19;;;;;;;9.95;2.53;;;16.20;99.90;;;;;;5122242;28;20081;-56
2023/07/03 03:50:46;;;;;;;7.90;2.13;;;16.20;99.90;;;;;;5116303;28;20047;-56
2023/07/03 03:53:12;;;;;;;10.20;2.55;;;16.10;99.90;;;;;;5112159;28;20047;-56
2023/07/03 03:55:37;;;;;;;9.30;2.40;;;16.10;99.90;;;;;;5122459;28;20066;-55
2023/07/03 03:58:03;;;;;;;12.10;2.50;;;16.10;99.90;;;;;;5110321;28;20040;-56
2023/07/03 04:00:29;;;;;;;11.50;2.85;;;16.10;99.90;;;;;;5101707;28;20475;-56
2023/07/03 04:02:55;;;;;;;10.55;2.38;;;16.10;99.90;;;;;;5107661;28;20063;-57
2023/07/03 04:05:21;;;;;;;8.35;1.98;;;16.10;99.90;;;;;;5101883;28;20054;-56
2023/07/03 04:07:47;;;;;;;9.10;2.47;;;16.00;99.90;;;;;;5101081;28;20059;-57
2023/07/03 04:10:12;;;;;;;11.55;2.30;;;16.00;99.90;;;;;;5088093;28;20066;-56
2023/07/03 04:12:38;;;;;;;10.43;2.60;;;16.00;99.90;;;;;;5106264;28;20028;-57
2023/07/03 04:15:05;;;;;;;8.73;2.30;;;16.00;99.90;;;;;;5100286;28;20047;-56
2023/07/03 04:17:30;;;;;;;10.63;2.47;;;16.00;99.90;;;;;;5083148;28;20044;-56
2023/07/03 04:19:56;;;;;;;10.48;2.35;;;16.00;99.90;;;;;;5104690;28;20118;-56
2023/07/03 04:22:22;;;;;;;11.90;2.33;;;16.00;99.90;;;;;;5101633;28;20052;-56
2023/07/03 04:24:47;;;;;;;5.10;1.73;;;16.00;99.90;;;;;;5104638;28;20048;-55
2023/07/03 04:27:14;;;;;;;8.80;2.25;;;16.00;99.90;;;;;;5101907;28;20047;-56
2023/07/03 04:29:41;;;;;;;7.00;2.45;;;16.00;99.90;;;;;;5104410;28;20044;-56
2023/07/03 04:32:07;;;;;;;14.48;2.85;;;16.00;99.90;;;;;;5095050;28;20053;-55
2023/07/03 04:34:32;;;;;;;9.80;2.00;;;16.00;99.90;;;;;;5082239;28;20079;-54
2023/07/03 04:36:58;;;;;;;7.65;1.80;;;16.10;99.90;;;;;;5083855;28;20083;-57
2023/07/03 04:39:24;;;;;;;10.20;2.40;;;16.10;99.90;;;;;;5081010;28;20041;-56
2023/07/03 04:41:49;;;;;;;12.05;2.30;;;16.10;99.90;;;;;;5084806;28;20049;-57
2023/07/03 04:44:15;;;;;;;10.40;2.47;;;16.10;99.90;;;;;;5118094;28;20146;-56
2023/07/03 04:46:43;;;;;;;8.27;2.05;;;16.10;99.90;;;;;;5095839;28;20051;-56
2023/07/03 04:49:10;;;;;;;10.15;1.98;;;16.00;99.90;;;;;;5095582;28;20096;-55
2023/07/03 04:51:36;;;;;;;7.50;2.10;;;16.00;99.90;;;;;;5100351;28;20031;-56
2023/07/03 04:54:03;;;;;;;10.40;2.60;;;16.00;99.90;;;;;;5105762;28;20040;-56
2023/07/03 04:56:32;;;;;;;10.18;1.90;;;16.00;99.90;;;;;;5100932;28;20078;-56
2023/07/03 04:58:58;;;;;;;17.20;2.88;;;16.00;99.90;;;;;;5097811;28;20041;-56
2023/07/03 05:01:24;;;;;;;15.80;2.78;;;16.10;99.90;;;;;;5091639;28;20048;-56
2023/07/03 05:03:50;;;;;;;8.50;1.92;;;16.10;99.90;;;;;;5101069;28;20111;-55
2023/07/03 05:06:16;;;;;;;9.52;2.38;;;16.10;99.90;;;;;;5090063;28;20119;-55
2023/07/03 05:08:42;;;;;;;13.68;2.40;;;16.10;99.90;;;;;;5096196;28;20035;-56
2023/07/03 05:11:07;;;;;;;11.15;2.67;;;16.10;99.90;;;;;;5103668;28;20044;-56
2023/07/03 05:13:33;;;;;;;11.63;2.55;;;16.10;99.90;;;;;;5105927;28;20496;-56
2023/07/03 05:15:59;;;;;;;10.45;2.55;;;16.10;99.90;;;;;;5113256;28;20032;-56
2023/07/03 05:18:24;;;;;;;11.25;2.47;;;16.10;99.90;;;;;;5104710;28;20036;-56
2023/07/03 05:20:50;;;;;;;16.67;2.85;;;16.20;99.90;;;;;;5100474;28;20040;-57
2023/07/03 05:23:17;;;;;;;11.95;2.08;;;16.20;99.90;;;;;;5091258;28;20055;-56
2023/07/03 05:25:45;;;;;;;11.00;2.60;;;16.30;99.90;;;;;;5113566;28;20036;-57
2023/07/03 05:28:11;;;;;;;18.98;3.10;;;16.40;99.90;;;;;;5103327;28;20089;-59
2023/07/03 05:30:36;;;;;;;11.68;2.10;;;16.50;99.90;;;;;;5100593;28;20032;-57
2023/07/03 05:33:02;;;;;;;9.38;2.50;;;16.50;99.90;;;;;;5103088;28;20083;-56
2023/07/03 05:35:28;;;;;;;13.15;2.13;;;16.50;99.90;;;;;;5114612;28;20062;-56
2023/07/03 05:37:53;;;;;;;12.10;2.75;;;16.50;99.90;;;;;;5123392;28;20039;-56
2023/07/03 05:40:19;;;;;;;8.02;2.67;;;16.40;99.90;;;;;;5110696;28;20058;-55
2023/07/03 05:42:45;;;;;;;13.13;2.70;;;16.40;99.90;;;;;;5100775;28;20048;-55
2023/07/03 05:45:11;;;;;;;9.38;3.22;;;16.40;99.90;;;;;;5100998;28;20039;-57
2023/07/03 05:47:37;;;;;;;7.72;2.47;;;16.40;99.90;;;;;;5098812;28;20032;-56
2023/07/03 05:50:04;;;;;;;10.90;2.42;;;16.40;99.90;;;;;;5112129;28;20043;-56
2023/07/03 05:52:29;;;;;;;14.70;2.58;;;16.50;99.90;;;;;;5100573;28;20040;-57
2023/07/03 05:54:55;;;;;;;12.38;2.80;;;16.50;99.90;;;;;;5093095;28;20033;-56
2023/07/03 05:57:21;;;;;;;12.38;2.63;;;16.50;99.90;;;;;;5094177;28;20032;-56
2023/07/03 05:59:48;;;;;;;14.48;2.83;;;16.60;99.90;;;;;;5086024;28;20044;-57
2023/07/03 06:02:15;;;;;;;14.68;2.65;;;16.60;99.90;;;;;;5097349;28;20052;-57
2023/07/03 06:04:41;;;;;;;11.85;2.28;;;16.60;99.90;;;;;;5089861;28;20052;-57
2023/07/03 06:07:08;;;;;;;10.73;2.35;;;16.70;99.90;;;;;;5095283;28;20044;-56
2023/07/03 06:09:34;;;;;;;11.40;2.63;;;16.70;99.90;;;;;;5089513;28;20052;-57
2023/07/03 06:12:00;;;;;;;9.27;2.30;;;16.70;99.90;;;;;;5082291;28;20064;-57
2023/07/03 06:14:29;;;;;;;12.60;2.60;;;16.70;99.90;;;;;;5100176;28;20038;-55
2023/07/03 06:16:55;;;;;;;12.35;2.75;;;16.80;99.90;;;;;;5120899;28;20042;-57
2023/07/03 06:19:21;;;;;;;11.20;2.47;;;16.90;99.90;;;;;;5121705;28;20071;-55
2023/07/03 06:21:48;;;;;;;10.80;1.88;;;17.00;99.90;;;;;;5090921;28;20480;-56
2023/07/03 06:24:14;;;;;;;11.77;2.25;;;17.10;99.90;;;;;;5094709;28;20056;-57
2023/07/03 06:26:41;;;;;;;10.68;2.30;;;17.10;99.90;;;;;;5094379;28;20036;-57
2023/07/03 06:29:08;;;;;;;13.90;2.53;;;17.20;99.90;;;;;;5101037;28;20059;-57
2023/07/03 06:31:35;;;;;;;11.23;2.50;;;17.20;99.90;;;;;;5093824;28;20500;-56
2023/07/03 06:34:01;;;;;;;8.07;2.40;;;17.20;99.90;;;;;;5101396;28;20068;-57
2023/07/03 06:36:27;;;;;;;18.20;2.83;;;17.20;99.90;;;;;;5102907;28;20047;-57
2023/07/03 06:38:53;;;;;;;11.88;2.58;;;17.30;99.90;;;;;;5096959;28;20051;-57
2023/07/03 06:41:24;;;;;;;11.05;2.40;;;17.30;99.90;;;;;;5100144;28;20032;-57
2023/07/03 06:43:49;;;;;;;27.50;2.97;;;17.30;99.90;;;;;;5098998;28;20396;-57
2023/07/03 06:46:15;;;;;;;10.70;3.15;;;17.50;99.90;;;;;;5101709;28;20112;-57
2023/07/03 06:48:42;;;;;;;12.48;2.67;;;17.70;99.90;;;;;;5099237;28;20090;-56
2023/07/03 06:51:10;;;;;;;11.93;2.88;;;17.90;99.90;;;;;;5101312;28;20044;-58
2023/07/03 06:53:36;;;;;;;12.98;2.60;;;17.90;99.90;;;;;;5101315;28;20040;-56
2023/07/03 06:56:03;;;;;;;13.13;2.72;;;17.90;99.90;;;;;;5099136;28;20109;-57
2023/07/03 06:58:30;;;;;;;13.93;2.70;;;17.90;99.90;;;;;;5101768;28;20043;-58
2023/07/03 07:00:56;;;;;;;17.73;3.25;;;17.80;99.90;;;;;;5098836;28;20048;-58
2023/07/03 07:03:23;;;;;;;9.38;2.53;;;17.70;99.90;;;;;;5101664;28;20496;-57
2023/07/03 07:05:54;;;;;;;11.80;2.70;;;17.70;99.90;;;;;;5099234;28;20044;-56
2023/07/03 07:08:20;;;;;;;8.95;2.15;;;17.70;99.90;;;;;;5100797;28;20048;-58
2023/07/03 07:10:46;;;;;;;8.75;2.15;;;17.80;99.90;;;;;;5101201;28;20051;-56
2023/07/03 07:13:13;;;;;;;25.58;2.50;;;18.00;99.90;;;;;;5099215;28;20136;-57
2023/07/03 07:15:40;;;;;;;14.48;2.50;;;18.20;99.90;;;;;;5101469;28;20064;-57
2023/07/03 07:18:07;;;;;;;14.48;2.28;;;18.40;99.90;;;;;;5098773;28;20062;-58
2023/07/03 07:20:37;;;;;;;10.68;2.30;;;18.50;99.90;;;;;;5101763;28;20044;-57
2023/07/03 07:23:02;;;;;;;11.75;2.35;;;18.50;99.90;;;;;;5099238;28;20075;-57
2023/07/03 07:25:28;;;;;;;9.50;2.10;;;18.60;99.80;;;;;;5101010;28;20107;-57
2023/07/03 07:27:54;;;;;;;9.10;1.98;;;18.80;99.40;;;;;;5101196;28;20095;-58
2023/07/03 07:30:19;;;;;;;11.95;1.70;;;18.80;99.00;;;;;;5099071;28;20071;-58
2023/07/03 07:32:47;;;;;;;8.95;1.90;;;18.70;99.00;;;;;;5101382;28;20040;-58
2023/07/03 07:35:14;;;;;;;10.75;2.00;;;18.60;99.00;;;;;;5098776;28;20040;-57
2023/07/03 07:37:39;;;;;;;8.57;2.00;;;18.70;99.00;;;;;;5101616;28;20040;-57
2023/07/03 07:40:06;;;;;;;12.77;1.88;;;19.00;98.80;;;;;;5098933;28;20707;-57
2023/07/03 07:42:32;;;;;;;4.80;1.40;;;19.20;97.80;;;;;;5100836;28;20544;-58
2023/07/03 07:44:57;;;;;;;8.05;1.30;;;19.40;97.50;;;;;;5100888;28;20040;-57
2023/07/03 07:47:23;;;;;;;5.53;1.40;;;19.60;97.10;;;;;;5099226;28;20051;-58
2023/07/03 07:49:49;;;;;;;7.80;1.80;;;19.90;96.40;;;;;;5101230;28;20048;-57
2023/07/03 07:52:15;;;;;;;7.63;1.60;;;20.00;96.10;;;;;;5098451;28;20554;-58
2023/07/03 07:54:41;;;;;;;6.68;1.60;;;20.10;95.50;;;;;;5101317;28;20535;-56
2023/07/03 07:57:07;;;;;;;10.15;2.00;;;20.10;95.30;;;;;;5098421;28;20044;-56
2023/07/03 07:59:34;;;;;;;9.25;1.85;;;20.20;95.20;;;;;;5101166;28;20083;-58
2023/07/03 08:02:00;;;;;;;9.52;1.90;;;20.30;95.10;;;;;;5099919;28;20044;-56
2023/07/03 08:04:26;;;;;;;10.80;1.88;;;20.40;95.10;;;;;;5099341;28;20074;-57
2023/07/03 08:06:52;;;;;;;6.43;1.70;;;20.60;95.30;;;;;;5102898;28;20404;-57
2023/07/03 08:09:18;;;;;;;4.97;1.50;;;20.90;95.10;;;;;;5101806;28;20093;-57
2023/07/03 08:11:44;;;;;;;4.82;1.60;;;21.10;94.30;;;;;;5104770;28;20044;-57
2023/07/03 08:14:10;;;;;;;14.85;1.98;;;21.20;94.20;;;;;;5102063;28;20047;-57
2023/07/03 08:16:36;;;;;;;9.50;1.63;;;21.20;93.70;;;;;;5104860;28;20036;-57
2023/07/03 08:19:02;;;;;;;7.40;1.85;;;21.20;93.60;;;;;;5103530;28;20044;-55
2023/07/03 08:21:28;;;;;;;10.05;1.40;;;21.40;93.20;;;;;;5103092;28;20043;-56
2023/07/03 08:23:54;;;;;;;10.27;1.90;;;21.50;93.20;;;;;;5104402;28;20044;-56
2023/07/03 08:26:22;;;;;;;13.68;1.90;;;21.60;92.50;;;;;;5100452;28;20040;-57
2023/07/03 08:28:48;;;;;;;7.03;1.65;;;21.50;91.70;;;;;;5104502;28;20047;-56
2023/07/03 08:31:14;;;;;;;5.53;1.80;;;21.20;91.80;;;;;;5101847;28;20099;-57
2023/07/03 08:33:40;;;;;;;8.95;1.90;;;20.90;92.30;;;;;;5104280;28;20044;-57
2023/07/03 08:36:06;;;;;;;6.55;1.55;;;20.60;92.40;;;;;;5103008;28;20040;-57
2023/07/03 08:38:32;;;;;;;7.38;1.65;;;20.40;92.60;;;;;;5102943;28;20044;-56
2023/07/03 08:40:59;;;;;;;11.50;2.17;;;20.20;92.70;;;;;;5103930;28;20071;-57
2023/07/03 08:43:32;;;;;;;12.63;1.90;;;20.00;93.30;;;;;;5101528;28;20044;-57
2023/07/03 08:46:00;;;;;;;10.45;1.90;;;19.90;93.50;;;;;;5104276;28;20044;-56
2023/07/03 08:48:29;;;;;;;10.45;2.08;;;19.80;93.60;;;;;;5101448;28;20040;-57
2023/07/03 08:50:58;;;;;;;22.13;2.42;;;19.80;94.00;;;;;;5102629;28;20662;-57
2023/07/03 08:53:33;;;;;;;9.73;2.22;;;19.70;94.10;;;;;;5085333;28;20055;-56
2023/07/03 08:56:05;;;;;;;7.33;2.00;;;19.60;94.20;;;;;;5101726;28;20043;-57
2023/07/03 08:58:31;;;;;;;9.63;1.88;;;19.50;94.30;;;;;;5104012;28;20040;-56
2023/07/03 09:01:14;;;;;;;10.30;2.47;;;19.40;94.80;;;;;;5101120;28;20048;-56
2023/07/03 09:03:51;;;;;;;6.18;1.85;;;19.40;95.00;;;;;;5103431;28;20098;-57
2023/07/03 09:06:26;;;;;;;10.23;2.15;;;19.40;95.00;;;;;;5102995;28;20048;-55
2023/07/03 09:08:54;;;;;;;11.52;2.17;;;19.40;94.70;;;;;;5101377;28;20046;-56
2023/07/03 09:11:21;;;;;;;16.48;2.25;;;19.40;95.00;;;;;;5103774;28;20069;-56
2023/07/03 09:13:51;;;;;;;9.43;2.08;;;19.60;95.10;;;;;;5100741;28;20074;-56
2023/07/03 09:16:21;;;;;;;7.25;2.00;;;19.70;95.00;;;;;;5103402;28;20032;-58
2023/07/03 09:18:58;;;;;;;9.40;2.10;;;19.60;94.90;;;;;;5101540;28;20032;-56
2023/07/03 09:21:25;;;;;;;8.50;1.88;;;19.50;94.90;;;;;;5102145;28;20088;-58
2023/07/03 09:24:05;;;;;;;20.27;1.98;;;19.40;95.30;;;;;;5103732;28;20048;-56
2023/07/03 09:26:38;;;;;;;9.35;1.95;;;19.50;95.00;;;;;;5100316;28;20132;-57
2023/07/03 09:29:05;;;;;;;10.38;1.73;;;19.60;94.50;;;;;;5103455;28;20036;-58
2023/07/03 09:31:31;;;;;;;6.82;1.45;;;19.80;94.20;;;;;;5101222;28;20047;-56
2023/07/03 09:33:57;;;;;;;5.57;1.40;;;20.10;93.80;;;;;;5102472;28;20044;-56
2023/07/03 09:36:37;;;;;;;8.43;2.00;;;20.20;93.30;;;;;;5102851;28;20101;-56
2023/07/03 09:39:18;;;;;;;5.47;1.58;;;20.10;91.70;;;;;;5100003;28;20072;-56
2023/07/03 09:41:44;;;;;;;5.30;1.30;;;20.10;91.90;;;;;;5103370;28;20044;-56
2023/07/03 09:44:14;;;;;;;11.32;1.33;;;20.20;92.30;;;;;;5100105;28;20103;-56
2023/07/03 09:46:40;;;;;;;28.63;2.83;;;20.30;91.60;;;;;;5102641;28;20561;-56
2023/07/03 09:49:28;;;;;;;6.47;1.73;;;20.30;91.60;;;;;;5102088;28;20078;-56
2023/07/03 09:51:57;;;;;;;6.88;1.52;;;20.50;91.50;;;;;;5100210;28;20079;-57
2023/07/03 09:54:27;;;;;;;9.43;1.67;;;20.50;90.70;;;;;;5102962;28;20563;-56
2023/07/03 09:56:56;;;;;;;9.98;1.60;;;20.60;90.40;;;;;;5099958;28;20115;-56
2023/07/03 09:59:24;;;;;;;8.60;1.55;;;20.70;90.70;;;;;;5102718;28;20055;-57
2023/07/03 10:01:55;;;;;;;9.52;1.60;;;20.70;90.40;;;;;;5101165;28;20100;-55
2023/07/03 10:04:21;;;;;;;9.88;1.50;;;20.60;89.90;;;;;;5100760;28;20048;-57
2023/07/03 10:07:04;;;;;;;7.97;1.70;;;20.50;90.30;;;;;;5101603;28;20055;-57
2023/07/03 10:09:32;;;;;;;6.78;1.50;;;20.40;90.10;;;;;;5099504;28;20114;-57
2023/07/03 10:12:26;;;;;;;11.60;1.70;;;20.20;90.10;;;;;;5101496;28;20567;-57
2023/07/03 10:15:06;;;;;;;8.35;1.48;;;20.10;90.60;;;;;;5101197;28;20086;-56
2023/07/03 10:17:52;;;;;;;8.00;1.80;;;20.00;90.60;;;;;;5098291;28;20043;-57
2023/07/03 10:20:33;;;;;;;4.82;1.58;;;19.90;90.50;;;;;;5102657;28;20124;-57
2023/07/03 10:23:02;;;;;;;13.00;2.20;;;19.90;90.60;;;;;;5100259;28;20462;-56
2023/07/03 10:25:35;;;;;;;13.60;1.92;;;20.00;91.00;;;;;;5101519;28;20491;-56
2023/07/03 10:28:07;;;;;;;10.35;1.73;;;20.00;90.70;;;;;;5102171;28;20043;-56
2023/07/03 10:30:36;;;;;;;13.48;1.90;;;20.10;91.00;;;;;;5098903;28;20036;-56
2023/07/03 10:33:05;;;;;;;5.13;1.58;;;20.00;91.20;;;;;;5102242;28;20050;-57
2023/07/03 10:35:33;;;;;;;7.65;1.88;;;20.00;91.40;;;;;;5099341;28;20044;-56
2023/07/03 10:38:08;;;;;;;11.10;1.98;;;19.90;91.30;;;;;;5102138;28;20036;-57
2023/07/03 10:40:55;;;;;;;10.48;1.90;;;20.00;91.20;;;;;;5101181;28;20054;-55
2023/07/03 10:43:24;;;;;;;7.00;1.58;;;20.10;91.20;;;;;;5098973;28;20074;-56
2023/07/03 10:45:52;;;;;;;14.73;2.67;;;20.10;91.10;;;;;;5102175;28;20078;-56
2023/07/03 10:48:28;;;;;;;11.20;1.85;;;20.20;91.30;;;;;;5099282;28;20076;-57
2023/07/03 10:51:30;;;;;;;11.90;1.75;;;20.20;91.30;;;;;;5101848;28;20036;-56
2023/07/03 10:54:08;;;;;;;9.77;1.67;;;20.10;90.40;;;;;;5101557;28;20572;-56
2023/07/03 10:56:41;;;;;;;6.13;1.40;;;19.90;90.90;;;;;;5097723;28;20040;-56
2023/07/03 10:59:35;;;;;;;9.93;1.42;;;19.70;90.70;;;;;;5101856;28;20041;-56
2023/07/03 11:02:18;;;;;;;15.25;1.88;;;19.60;91.00;;;;;;5100989;28;20036;-56
2023/07/03 11:05:20;;;;;;;11.63;2.08;;;19.50;91.70;;;;;;5098865;28;20047;-57
2023/07/03 11:08:00;;;;;;;10.13;1.60;;;19.60;91.90;;;;;;5101706;28;20046;-56
2023/07/03 11:10:35;;;;;;;9.77;1.85;;;19.80;91.90;;;;;;5100525;28;20044;-56
2023/07/03 11:13:14;;;;;;;11.77;1.75;;;19.90;91.90;;;;;;5099798;28;20130;-56
2023/07/03 11:16:11;;;;;;;7.30;1.52;;;19.90;91.80;;;;;;5100362;28;20040;-56
2023/07/03 11:18:48;;;;;;;;;;;19.90;92.20;;;;;;5100188;28;20044;-56
2023/07/03 11:21:35;;;;;;;5.78;1.75;;;19.90;91.70;;;;;;5100238;28;20448;-56
2023/07/03 11:24:22;;;;;;;11.55;1.90;;;19.90;91.90;;;;;;5101409;28;20126;-57
2023/07/03 11:27:01;;;;;;;8.98;1.70;;;19.90;92.20;;;;;;5098660;28;20047;-56
2023/07/03 11:29:27;;;;;;;17.88;2.30;;;20.00;92.60;;;;;;5100952;28;20668;-57
2023/07/03 11:31:55;;;;;;;8.38;1.70;;;20.00;92.30;;;;;;5100615;28;20446;-55
2023/07/03 11:34:22;;;;;;;15.70;1.90;;;20.10;92.10;;;;;;5099465;28;20056;-57
2023/07/03 11:36:51;;;;;;;8.55;1.70;;;20.10;91.70;;;;;;5101436;28;20050;-56
2023/07/03 11:39:24;;;;;;;4.45;1.23;;;20.10;91.90;;;;;;5098439;28;20120;-56
2023/07/03 11:42:02;;;;;;;6.65;1.45;;;20.00;90.80;;;;;;5104875;28;20066;-57
2023/07/03 11:44:27;;;;;;;9.25;1.60;;;19.90;90.90;;;;;;5103507;28;20056;-55
2023/07/03 11:47:00;;;;;;;7.35;1.40;;;19.90;91.10;;;;;;5104178;28;20153;-56
2023/07/03 11:49:31;;;;;;;10.68;1.55;;;19.90;91.00;;;;;;5105375;28;20097;-56
2023/07/03 11:52:00;;;;;;;7.78;1.58;;;19.90;91.40;;;;;;5102373;28;20044;-57
2023/07/03 11:54:29;;;;;;;8.85;1.85;;;20.00;90.90;;;;;;5105249;28;20036;-57
2023/07/03 11:57:05;;;;;;;7.68;1.90;;;20.00;90.80;;;;;;5102299;28;20093;-57
2023/07/03 11:59:35;;;;;;;13.27;2.22;;;19.90;90.60;;;;;;5104926;28;20488;-57
2023/07/03 12:02:16;;;;;;;8.98;2.10;;;20.00;90.80;;;;;;5104486;28;20416;-57
2023/07/03 12:04:45;;;;;;;5.45;1.60;;;20.20;90.80;;;;;;5102194;28;20139;-57
2023/07/03 12:07:30;;;;;;;11.70;1.95;;;20.30;90.30;;;;;;5104892;28;20048;-57
2023/07/03 12:10:18;;;;;;;13.98;2.28;;;20.40;90.30;;;;;;5102209;28;20482;-56
2023/07/03 12:13:04;;;;;;;10.23;2.13;;;20.50;88.10;;;;;;5103372;28;20044;-56
2023/07/03 12:15:30;;;;;;;13.50;1.63;;;20.50;89.50;;;;;;5104612;28;20050;-56
2023/07/03 12:18:03;;;;;;;10.00;1.80;;;20.40;88.70;;;;;;5101776;28;20044;-56
2023/07/03 12:20:29;;;;;;;4.78;1.48;;;20.30;89.20;;;;;;5103224;28;20102;-56
2023/07/03 12:22:54;;;;;;;6.97;1.58;;;20.20;88.60;;;;;;5102538;28;20048;-56
2023/07/03 12:25:28;;;;;;;8.23;1.75;;;20.10;89.00;;;;;;5103936;28;20047;-57
2023/07/03 12:28:07;;;;;;;8.93;1.80;;;20.00;89.10;;;;;;5104702;28;20063;-55
2023/07/03 12:30:33;;;;;;;9.00;1.70;;;19.90;88.70;;;;;;5101746;28;20036;-57
2023/07/03 12:33:01;;;;;;;13.90;2.00;;;19.80;89.00;;;;;;5104609;28;20048;-57
2023/07/03 12:35:42;;;;;;;7.60;1.70;;;19.80;89.80;;;;;;5101453;28;20044;-56
2023/07/03 12:38:09;;;;;;;7.25;1.65;;;19.80;88.80;;;;;;5103616;28;20096;-57
2023/07/03 12:40:43;;;;;;;16.33;2.13;;;19.80;89.40;;;;;;5103568;28;20048;-56
2023/07/03 12:43:10;;;;;;;6.35;1.75;;;19.90;90.00;;;;;;5101543;28;20040;-57
2023/07/03 12:45:36;;;;;;;10.60;1.80;;;19.90;89.60;;;;;;5104383;28;20493;-57
2023/07/03 12:48:07;;;;;;;8.13;2.00;;;19.90;89.10;;;;;;5101394;28;20036;-58
2023/07/03 12:50:58;;;;;;;9.18;1.70;;;19.90;89.00;;;;;;5104188;28;20048;-57